Terminal Aerodrome Forecast
Issued by NWS Wilmington, OH

Current Version | Previous Version | Graphics & Text | Print | Product List | Glossary On
Versions: 1 2 3 4 5 6 7 8 9 10 11 12 13 14 15 16 17 18 19 20 21 22 23 24 25
000
FTUS41 KILN 242000 AAA
TAFCVG
TAF AMD
KCVG 242059Z 2421/2524 15005KT P6SM SCT120 BKN250
     FM250100 12005KT P6SM OVC080
     FM250800 12010KT P6SM VCSH OVC060
     FM251500 12012KT 5SM -SHRA BR BKN025 OVC040
     FM251900 06010KT 5SM BR OVC010=

USA.gov is the U.S. government's official web portal to all federal, state and local government web resources and services.